createdAt,value
2019-01-08T00:01:16.320Z,6.37
2019-01-08T00:03:45.315Z,6.47
2019-01-08T00:06:13.989Z,7.50
2019-01-08T00:08:43.103Z,7.23
2019-01-08T00:11:11.755Z,6.97
2019-01-08T00:13:40.806Z,6.93
2019-01-08T00:16:09.516Z,6.40
2019-01-08T00:18:38.190Z,6.43
2019-01-08T00:21:06.937Z,6.33
2019-01-08T00:23:35.627Z,6.27
2019-01-08T00:26:04.245Z,6.00
2019-01-08T00:28:32.910Z,6.20
2019-01-08T00:31:01.562Z,6.20
2019-01-08T00:33:30.824Z,6.07
2019-01-08T00:35:59.567Z,5.53
2019-01-08T00:38:28.247Z,5.37
2019-01-08T00:40:56.995Z,5.87
2019-01-08T00:43:25.989Z,4.90
2019-01-08T00:45:54.767Z,4.93
2019-01-08T00:48:23.512Z,4.93
2019-01-08T00:50:52.169Z,5.23
2019-01-08T00:53:20.786Z,5.50
2019-01-08T00:55:49.521Z,4.70
2019-01-08T00:58:18.159Z,5.27
2019-01-08T01:00:47.051Z,4.20
2019-01-08T01:03:15.823Z,4.57
2019-01-08T01:05:45.992Z,5.07
2019-01-08T01:08:14.651Z,4.50
2019-01-08T01:10:43.607Z,4.07
2019-01-08T01:13:13.296Z,4.23
2019-01-08T01:15:43.548Z,4.87
2019-01-08T01:18:12.485Z,4.00
2019-01-08T01:20:41.954Z,3.43
2019-01-08T01:23:10.574Z,3.73
2019-01-08T01:25:58.774Z,4.10
2019-01-08T01:28:27.462Z,3.20
2019-01-08T01:30:56.148Z,3.80
2019-01-08T01:33:25.238Z,4.23
2019-01-08T01:35:53.914Z,3.83
2019-01-08T01:38:22.930Z,2.93
2019-01-08T01:40:51.609Z,3.27
2019-01-08T01:43:20.339Z,3.53
2019-01-08T01:45:49.389Z,4.07
2019-01-08T01:48:18.031Z,3.63
2019-01-08T01:50:46.810Z,3.60
2019-01-08T01:53:15.540Z,3.83
2019-01-08T01:55:44.229Z,3.50
2019-01-08T01:58:13.428Z,4.47
2019-01-08T02:00:42.204Z,3.23
2019-01-08T02:03:10.863Z,3.83
2019-01-08T02:05:39.575Z,4.23
2019-01-08T02:08:08.547Z,3.40
2019-01-08T02:10:37.360Z,3.97
2019-01-08T02:13:06.548Z,4.33
2019-01-08T02:15:35.290Z,4.00
2019-01-08T02:18:04.213Z,4.43
2019-01-08T02:20:33.007Z,4.23
2019-01-08T02:23:01.960Z,4.80
2019-01-08T02:25:30.654Z,4.67
2019-01-08T02:27:59.316Z,4.50
2019-01-08T02:30:27.983Z,3.97
2019-01-08T02:32:56.642Z,4.23
2019-01-08T02:35:25.642Z,4.50
2019-01-08T02:37:54.844Z,4.53
2019-01-08T02:40:23.683Z,3.67
2019-01-08T02:42:52.518Z,4.40
2019-01-08T02:45:21.198Z,4.30
2019-01-08T02:47:50.138Z,4.00
2019-01-08T02:50:18.870Z,4.00
2019-01-08T02:52:48.070Z,3.67
2019-01-08T02:55:16.977Z,3.57
2019-01-08T02:57:45.676Z,3.50
2019-01-08T03:00:14.319Z,3.47
2019-01-08T03:02:43.088Z,3.87
2019-01-08T03:05:11.807Z,4.23
2019-01-08T03:07:40.647Z,3.80
2019-01-08T03:10:09.363Z,4.23
2019-01-08T03:12:38.056Z,4.23
2019-01-08T03:15:06.891Z,4.07
2019-01-08T03:17:36.697Z,4.50
2019-01-08T03:20:05.633Z,4.10
2019-01-08T03:22:34.423Z,3.27
2019-01-08T03:25:04.292Z,4.43
2019-01-08T03:27:32.979Z,3.73
2019-01-08T03:30:01.995Z,3.93
2019-01-08T03:32:31.389Z,3.97
2019-01-08T03:35:00.623Z,3.90
2019-01-08T03:37:29.608Z,3.53
2019-01-08T03:39:58.584Z,3.53
2019-01-08T03:42:27.342Z,3.53
2019-01-08T03:44:56.003Z,4.00
2019-01-08T03:47:26.943Z,3.30
2019-01-08T03:49:55.643Z,3.77
2019-01-08T03:52:24.326Z,3.37
2019-01-08T03:54:53.224Z,3.50
2019-01-08T03:57:22.323Z,2.73
2019-01-08T03:59:52.366Z,3.60
2019-01-08T04:02:21.372Z,3.23
2019-01-08T04:04:50.417Z,3.03
2019-01-08T04:07:19.307Z,3.10
2019-01-08T04:09:47.994Z,3.47
2019-01-08T04:12:17.224Z,2.67
2019-01-08T04:14:45.913Z,3.10
2019-01-08T04:17:14.931Z,3.07
2019-01-08T04:19:43.607Z,2.87
2019-01-08T04:22:12.423Z,2.87
2019-01-08T04:24:41.396Z,2.20
2019-01-08T04:27:10.316Z,2.13
2019-01-08T04:29:39.304Z,2.87
2019-01-08T04:32:08.389Z,3.57
2019-01-08T04:34:37.040Z,3.10
2019-01-08T04:37:05.735Z,2.43
2019-01-08T04:39:34.746Z,2.37
2019-01-08T04:42:03.746Z,2.40
2019-01-08T04:44:32.416Z,2.80
2019-01-08T04:47:01.049Z,2.60
2019-01-08T04:49:30.128Z,1.90
2019-01-08T04:51:58.824Z,2.70
2019-01-08T04:54:27.795Z,3.20
2019-01-08T04:56:56.453Z,2.67
2019-01-08T04:59:25.422Z,2.57
2019-01-08T05:01:54.784Z,2.17
2019-01-08T05:04:23.512Z,3.17
2019-01-08T05:06:52.481Z,3.03
2019-01-08T05:09:21.226Z,2.33
2019-01-08T05:11:50.440Z,2.63
2019-01-08T05:14:19.398Z,2.67
2019-01-08T05:16:48.036Z,2.70
2019-01-08T05:19:17.066Z,2.13
2019-01-08T05:21:45.718Z,2.53
2019-01-08T05:24:14.725Z,2.30
2019-01-08T05:26:43.460Z,1.93
2019-01-08T05:29:12.142Z,2.57
2019-01-08T05:31:40.813Z,1.90
2019-01-08T05:34:09.459Z,1.93
2019-01-08T05:36:38.144Z,1.60
2019-01-08T05:39:07.076Z,2.37
2019-01-08T05:41:36.216Z,1.80
2019-01-08T05:44:04.922Z,2.30
2019-01-08T05:46:33.600Z,1.90
2019-01-08T05:49:03.614Z,2.07
2019-01-08T05:51:32.470Z,1.73
2019-01-08T05:54:01.640Z,2.30
2019-01-08T05:56:30.633Z,1.77
2019-01-08T05:58:59.300Z,1.63
2019-01-08T06:01:28.269Z,2.13
2019-01-08T06:03:56.996Z,1.90
2019-01-08T06:06:25.722Z,1.70
2019-01-08T06:08:54.391Z,2.20
2019-01-08T06:11:23.066Z,2.00
2019-01-08T06:13:51.721Z,2.00
2019-01-08T06:16:21.239Z,1.70
2019-01-08T06:18:50.202Z,2.33
2019-01-08T06:21:18.939Z,1.90
2019-01-08T06:23:47.603Z,1.80
2019-01-08T06:26:16.799Z,2.53
2019-01-08T06:28:45.431Z,1.87
2019-01-08T06:31:14.308Z,2.17
2019-01-08T06:33:42.958Z,1.90
2019-01-08T06:36:12.604Z,1.90
2019-01-08T06:38:41.292Z,2.13
2019-01-08T06:41:09.939Z,1.93
2019-01-08T06:43:38.558Z,2.03
2019-01-08T06:46:07.507Z,1.53
2019-01-08T06:48:37.184Z,1.40
2019-01-08T06:51:06.116Z,2.00
2019-01-08T06:53:34.816Z,1.73
2019-01-08T06:56:03.496Z,1.53
2019-01-08T06:58:32.415Z,1.73
2019-01-08T07:01:02.381Z,1.67
2019-01-08T07:03:31.130Z,2.17
2019-01-08T07:05:59.884Z,2.03
2019-01-08T07:08:29.598Z,1.83
2019-01-08T07:10:58.386Z,1.83
2019-01-08T07:13:27.022Z,1.30
2019-01-08T07:15:56.042Z,3.07
2019-01-08T07:18:24.710Z,1.60
2019-01-08T07:20:53.404Z,1.97
2019-01-08T07:23:22.059Z,2.10
2019-01-08T07:25:51.011Z,1.33
2019-01-08T07:28:19.695Z,1.97
2019-01-08T07:30:48.335Z,1.43
2019-01-08T07:33:17.103Z,1.50
2019-01-08T07:35:45.808Z,1.27
2019-01-08T07:38:14.443Z,1.70
2019-01-08T07:40:43.430Z,2.33
2019-01-08T07:43:12.063Z,1.57
2019-01-08T07:45:41.031Z,1.60
2019-01-08T07:48:09.751Z,1.53
2019-01-08T07:50:38.664Z,1.23
2019-01-08T07:53:07.579Z,1.43
2019-01-08T07:55:36.238Z,1.60
2019-01-08T07:58:04.896Z,1.40
2019-01-08T08:00:33.541Z,1.63
2019-01-08T08:03:02.172Z,1.20
2019-01-08T08:05:30.828Z,1.80
2019-01-08T08:07:59.714Z,1.50
2019-01-08T08:10:28.443Z,1.90
2019-01-08T08:12:57.198Z,1.30
2019-01-08T08:15:26.134Z,2.47
2019-01-08T08:17:54.822Z,1.70
2019-01-08T08:20:23.524Z,1.83
2019-01-08T08:22:52.162Z,1.87
2019-01-08T08:25:20.838Z,1.67
2019-01-08T08:27:49.540Z,1.60
2019-01-08T08:30:18.487Z,1.53
2019-01-08T08:32:47.472Z,1.63
2019-01-08T08:35:16.147Z,2.07
2019-01-08T08:37:44.874Z,1.37
2019-01-08T08:40:13.523Z,2.33
2019-01-08T08:42:42.456Z,1.60
2019-01-08T08:45:11.359Z,1.57
2019-01-08T08:47:40.323Z,1.50
2019-01-08T08:50:09.231Z,1.53
2019-01-08T08:52:37.859Z,1.37
2019-01-08T08:55:06.627Z,1.60
2019-01-08T08:57:35.283Z,1.23
2019-01-08T09:00:04.313Z,1.80
2019-01-08T09:02:32.947Z,1.13
2019-01-08T09:05:01.896Z,1.00
2019-01-08T09:07:30.523Z,2.20
2019-01-08T09:09:59.284Z,1.53
2019-01-08T09:12:27.930Z,1.33
2019-01-08T09:14:56.795Z,1.33
2019-01-08T09:17:25.696Z,1.10
2019-01-08T09:19:54.419Z,1.40
2019-01-08T09:22:23.055Z,2.53
2019-01-08T09:24:51.687Z,1.37
2019-01-08T09:27:20.555Z,1.37
2019-01-08T09:29:49.194Z,1.60
2019-01-08T09:32:17.827Z,1.50
2019-01-08T09:34:47.204Z,0.97
2019-01-08T09:37:16.137Z,1.10
2019-01-08T09:39:44.795Z,1.27
2019-01-08T09:42:13.449Z,1.83
2019-01-08T09:44:42.687Z,1.53
2019-01-08T09:47:11.317Z,1.67
2019-01-08T09:49:39.979Z,0.93
2019-01-08T09:52:08.864Z,1.30
2019-01-08T09:54:37.847Z,1.33
2019-01-08T09:57:06.753Z,1.50
2019-01-08T09:59:35.779Z,1.40
2019-01-08T10:02:05.006Z,1.03
2019-01-08T10:04:33.752Z,1.53
2019-01-08T10:07:02.389Z,1.33
2019-01-08T10:09:31.274Z,1.43
2019-01-08T10:11:59.905Z,1.63
2019-01-08T10:14:28.583Z,1.73
2019-01-08T10:16:57.238Z,0.90
2019-01-08T10:19:25.889Z,1.10
2019-01-08T10:21:54.508Z,1.20
2019-01-08T10:24:23.144Z,1.27
2019-01-08T10:26:51.866Z,1.17
2019-01-08T10:29:20.495Z,1.67
2019-01-08T10:31:49.136Z,1.63
2019-01-08T10:34:17.948Z,1.37
2019-01-08T10:36:46.930Z,1.27
2019-01-08T10:39:15.571Z,1.57
2019-01-08T10:41:44.259Z,1.03
2019-01-08T10:44:13.127Z,2.33
2019-01-08T10:46:42.082Z,1.00
2019-01-08T10:49:10.813Z,1.03
2019-01-08T10:51:39.518Z,0.97
2019-01-08T10:54:08.387Z,1.17
2019-01-08T10:56:37.566Z,0.73
2019-01-08T10:59:07.743Z,1.07
2019-01-08T11:01:40.703Z,1.20
2019-01-08T11:04:07.162Z,1.37
2019-01-08T11:06:35.883Z,1.33
2019-01-08T11:09:06.419Z,1.27
2019-01-08T11:11:35.103Z,0.93
2019-01-08T11:14:03.724Z,1.30
2019-01-08T11:16:32.381Z,1.07
2019-01-08T11:19:01.291Z,1.00
2019-01-08T11:21:29.991Z,0.90
2019-01-08T11:23:58.942Z,1.03
2019-01-08T11:26:27.579Z,0.77
2019-01-08T11:28:56.199Z,0.40
2019-01-08T11:31:24.840Z,0.93
2019-01-08T11:33:53.518Z,0.67
2019-01-08T11:36:22.459Z,0.80
2019-01-08T11:38:51.138Z,1.33
2019-01-08T11:41:19.806Z,0.87
2019-01-08T11:43:49.038Z,0.90
2019-01-08T11:46:18.197Z,0.70
2019-01-08T11:48:47.223Z,1.00
2019-01-08T11:51:16.140Z,1.70
2019-01-08T11:53:44.778Z,0.70
2019-01-08T11:56:13.534Z,0.70
2019-01-08T11:58:42.167Z,1.40
2019-01-08T12:01:11.124Z,0.50
2019-01-08T12:03:40.091Z,1.13
2019-01-08T12:06:08.728Z,0.70
2019-01-08T12:08:37.358Z,1.37
2019-01-08T12:11:06.561Z,1.30
2019-01-08T12:13:37.419Z,0.80
2019-01-08T12:16:06.335Z,1.10
2019-01-08T12:18:35.274Z,0.70
2019-01-08T12:21:04.046Z,0.67
2019-01-08T12:23:32.683Z,1.30
2019-01-08T12:26:01.334Z,0.77
2019-01-08T12:28:29.964Z,0.67
2019-01-08T12:30:58.595Z,1.30
2019-01-08T12:33:27.278Z,0.90
2019-01-08T12:35:55.999Z,1.27
2019-01-08T12:38:24.648Z,1.20
2019-01-08T12:40:53.575Z,0.97
2019-01-08T12:43:22.237Z,0.80
2019-01-08T12:45:50.866Z,1.00
2019-01-08T12:48:19.579Z,1.00
2019-01-08T12:50:48.245Z,0.80
2019-01-08T12:53:16.897Z,0.87
2019-01-08T12:55:45.915Z,1.27
2019-01-08T12:58:14.640Z,1.17
2019-01-08T13:00:43.553Z,0.93
2019-01-08T13:03:12.548Z,1.10
2019-01-08T13:05:41.183Z,1.13
2019-01-08T13:08:09.871Z,0.70
2019-01-08T13:10:38.506Z,1.37
2019-01-08T13:13:07.227Z,0.80
2019-01-08T13:15:35.851Z,1.00
2019-01-08T13:18:04.759Z,1.00
2019-01-08T13:20:33.389Z,0.80
2019-01-08T13:23:02.374Z,0.80
2019-01-08T13:25:31.271Z,1.00
2019-01-08T13:27:59.976Z,1.03
2019-01-08T13:30:28.853Z,0.90
2019-01-08T13:32:58.536Z,0.93
2019-01-08T13:35:27.520Z,0.97
2019-01-08T13:37:56.304Z,0.80
2019-01-08T13:40:25.440Z,1.30
2019-01-08T13:42:54.406Z,0.97
2019-01-08T13:45:23.385Z,0.77
2019-01-08T13:47:52.047Z,1.07
2019-01-08T13:50:20.685Z,1.00
2019-01-08T13:52:49.591Z,1.00
2019-01-08T13:55:18.248Z,1.03
2019-01-08T13:57:47.247Z,1.10
2019-01-08T14:00:16.295Z,0.80
2019-01-08T14:02:44.961Z,0.90
2019-01-08T14:05:13.651Z,0.70
2019-01-08T14:07:42.292Z,1.17
2019-01-08T14:10:11.027Z,0.63
2019-01-08T14:12:40.077Z,0.60
2019-01-08T14:22:18.949Z,0.60
2019-01-08T14:24:47.658Z,0.70
2019-01-08T14:30:48.764Z,0.40
2019-01-08T14:33:17.721Z,0.57
2019-01-08T14:35:46.613Z,0.80
2019-01-08T14:38:15.530Z,1.10
2019-01-08T14:40:44.203Z,0.63
2019-01-08T14:43:14.164Z,0.50
2019-01-08T14:45:43.072Z,0.80
2019-01-08T14:48:11.986Z,0.63
2019-01-08T14:50:40.960Z,0.50
2019-01-08T14:53:09.912Z,0.73
2019-01-08T14:55:39.154Z,0.43
2019-01-08T14:58:08.810Z,0.40
2019-01-08T15:00:37.448Z,0.80
2019-01-08T15:03:06.777Z,0.60
2019-01-08T15:05:35.506Z,0.50
2019-01-08T15:08:04.489Z,0.60
2019-01-08T15:10:37.719Z,1.40
2019-01-08T15:13:06.435Z,1.00
2019-01-08T15:15:35.172Z,0.70
2019-01-08T15:18:03.827Z,0.50
2019-01-08T15:20:32.929Z,0.57
2019-01-08T15:23:03.189Z,0.60
2019-01-08T15:25:31.914Z,0.90
2019-01-08T15:28:00.546Z,1.17
2019-01-08T15:30:29.196Z,1.13
2019-01-08T15:32:58.405Z,0.90
2019-01-08T15:35:27.572Z,0.80
2019-01-08T15:37:56.246Z,0.90
2019-01-08T15:40:25.162Z,0.60
2019-01-08T15:42:53.850Z,0.70
2019-01-08T15:45:23.124Z,1.17
2019-01-08T15:47:52.031Z,0.80
2019-01-08T15:50:21.350Z,0.83
2019-01-08T15:52:49.983Z,0.70
2019-01-08T15:55:18.614Z,0.70
2019-01-08T15:57:47.557Z,1.23
2019-01-08T16:00:16.571Z,0.80
2019-01-08T16:02:45.213Z,1.20
2019-01-08T16:05:13.907Z,1.17
2019-01-08T16:07:42.722Z,0.93
2019-01-08T16:10:11.670Z,1.07
2019-01-08T16:12:40.311Z,0.80
2019-01-08T16:15:09.297Z,0.87
2019-01-08T16:17:37.948Z,1.07
2019-01-08T16:20:07.223Z,0.60
2019-01-08T16:22:39.895Z,0.93
2019-01-08T16:25:08.887Z,0.90
2019-01-08T16:27:37.608Z,0.60
2019-01-08T16:30:06.867Z,0.67
2019-01-08T16:32:35.511Z,0.70
2019-01-08T16:35:05.215Z,0.87
2019-01-08T16:37:34.183Z,0.60
2019-01-08T16:40:02.826Z,1.47
2019-01-08T16:42:31.469Z,0.73
2019-01-08T16:45:00.284Z,0.90
2019-01-08T16:47:29.390Z,0.80
2019-01-08T16:53:43.308Z,0.93
2019-01-08T16:56:12.373Z,0.90
2019-01-08T16:58:41.147Z,1.30
2019-01-08T17:01:09.927Z,0.70
2019-01-08T17:03:38.839Z,1.50
2019-01-08T17:06:07.660Z,1.00
2019-01-08T17:08:38.078Z,0.90
2019-01-08T17:11:07.251Z,0.90
2019-01-08T17:13:36.211Z,1.03
2019-01-08T17:16:05.604Z,0.97
2019-01-08T17:18:34.296Z,2.00
2019-01-08T17:21:04.773Z,1.30
2019-01-08T17:23:37.125Z,0.60
2019-01-08T17:26:05.992Z,1.00
2019-01-08T17:28:35.027Z,0.70
2019-01-08T17:31:04.740Z,1.00
2019-01-08T17:33:34.360Z,0.80
2019-01-08T17:36:03.542Z,0.97
2019-01-08T17:38:32.853Z,0.60
2019-01-08T17:41:01.678Z,1.07
2019-01-08T17:43:40.919Z,0.80
2019-01-08T17:46:00.882Z,0.70
2019-01-08T17:48:29.975Z,0.80
2019-01-08T17:50:59.086Z,0.77
2019-01-08T17:53:28.662Z,0.70
2019-01-08T17:55:57.471Z,0.60
2019-01-08T17:58:41.063Z,0.60
2019-01-08T18:01:13.262Z,1.27
2019-01-08T18:03:43.452Z,1.17
2019-01-08T18:06:12.577Z,0.90
2019-01-08T18:08:41.448Z,0.90
2019-01-08T18:11:10.412Z,0.87
2019-01-08T18:13:39.576Z,1.13
2019-01-08T18:16:08.518Z,0.97
2019-01-08T18:18:37.678Z,0.77
2019-01-08T18:21:06.890Z,0.80
2019-01-08T18:23:35.950Z,0.80
2019-01-08T18:26:05.430Z,2.10
2019-01-08T18:28:34.447Z,1.30
2019-01-08T18:31:05.857Z,1.00
2019-01-08T18:33:35.085Z,0.93
2019-01-08T18:36:04.595Z,1.10
2019-01-08T18:38:34.094Z,0.93
2019-01-08T18:41:03.009Z,1.33
2019-01-08T18:43:32.159Z,0.90
2019-01-08T18:46:01.188Z,0.83
2019-01-08T18:48:30.798Z,1.07
2019-01-08T18:50:59.643Z,0.90
2019-01-08T18:53:28.400Z,1.10
2019-01-08T18:55:57.718Z,0.90
2019-01-08T18:58:27.260Z,1.00
2019-01-08T19:00:56.900Z,1.10
2019-01-08T19:03:25.975Z,1.20
2019-01-08T19:05:55.405Z,1.00
2019-01-08T19:08:54.680Z,1.10
2019-01-08T19:11:23.870Z,1.23
2019-01-08T19:13:52.989Z,1.27
2019-01-08T19:16:21.762Z,0.97
2019-01-08T19:18:52.579Z,1.07
2019-01-08T19:21:21.496Z,1.10
2019-01-08T19:23:50.801Z,1.03
2019-01-08T19:26:19.848Z,0.73
2019-01-08T19:28:49.055Z,1.13
2019-01-08T19:31:17.955Z,0.73
2019-01-08T19:33:47.315Z,0.83
2019-01-08T19:36:16.080Z,0.97
2019-01-08T19:38:45.377Z,0.90
2019-01-08T19:41:14.158Z,0.93
2019-01-08T19:43:44.763Z,0.60
2019-01-08T19:46:13.929Z,1.00
2019-01-08T19:48:43.063Z,1.03
2019-01-08T19:51:12.132Z,1.47
2019-01-08T19:53:41.368Z,1.20
2019-01-08T19:56:10.368Z,1.03
2019-01-08T19:58:39.318Z,1.07
2019-01-08T20:01:08.548Z,1.30
2019-01-08T20:03:37.322Z,1.40
2019-01-08T20:06:05.983Z,1.00
2019-01-08T20:08:35.147Z,1.00
2019-01-08T20:11:04.042Z,0.97
2019-01-08T20:13:32.948Z,0.90
2019-01-08T20:16:01.916Z,0.90
2019-01-08T20:18:31.352Z,1.07
2019-01-08T20:21:01.045Z,1.20
2019-01-08T20:23:33.236Z,1.20
2019-01-08T20:26:02.890Z,1.10
2019-01-08T20:28:33.622Z,1.40
2019-01-08T20:31:03.455Z,1.13
2019-01-08T20:33:33.216Z,1.20
2019-01-08T20:36:04.011Z,0.90
2019-01-08T20:38:33.504Z,0.90
2019-01-08T20:41:02.376Z,1.10
2019-01-08T20:43:32.207Z,0.73
2019-01-08T20:46:01.465Z,0.80
2019-01-08T20:48:30.643Z,0.90
2019-01-08T20:50:59.703Z,1.20
2019-01-08T20:53:29.906Z,1.00
2019-01-08T20:55:58.629Z,0.90
2019-01-08T20:58:29.096Z,0.90
2019-01-08T21:00:58.871Z,1.00
2019-01-08T21:03:28.028Z,0.93
2019-01-08T21:05:57.114Z,1.00
2019-01-08T21:08:26.063Z,1.20
2019-01-08T21:10:54.883Z,1.00
2019-01-08T21:13:23.618Z,0.83
2019-01-08T21:15:52.835Z,1.00
2019-01-08T21:18:21.843Z,1.00
2019-01-08T21:20:52.351Z,1.10
2019-01-08T21:23:24.595Z,1.23
2019-01-08T21:25:53.480Z,3.43
2019-01-08T21:28:22.483Z,0.70
2019-01-08T21:30:51.615Z,1.23
2019-01-08T21:33:20.645Z,1.00
2019-01-08T21:35:51.782Z,0.77
2019-01-08T21:38:29.025Z,0.93
2019-01-08T21:40:57.899Z,0.87
2019-01-08T21:43:26.919Z,0.77
2019-01-08T21:45:56.733Z,0.90
2019-01-08T21:48:31.145Z,0.70
2019-01-08T21:51:03.524Z,0.90
2019-01-08T21:53:37.405Z,0.60
2019-01-08T21:57:56.142Z,1.00
2019-01-08T22:00:50.070Z,1.17
2019-01-08T22:03:08.772Z,0.77
2019-01-08T22:05:37.784Z,0.83
2019-01-08T22:08:06.541Z,0.77
2019-01-08T22:10:35.842Z,1.00
2019-01-08T22:13:06.737Z,1.10
2019-01-08T22:15:35.655Z,0.80
2019-01-08T22:18:04.654Z,0.60
2019-01-08T22:20:33.780Z,1.10
2019-01-08T22:23:02.557Z,0.97
2019-01-08T22:25:32.073Z,0.80
2019-01-08T22:28:01.294Z,0.83
2019-01-08T22:30:29.970Z,0.90
2019-01-08T22:32:59.000Z,0.77
2019-01-08T22:35:27.741Z,0.80
2019-01-08T22:37:58.590Z,0.70
2019-01-08T22:40:27.473Z,0.80
2019-01-08T22:42:56.219Z,0.57
2019-01-08T22:45:25.326Z,0.90
2019-01-08T22:47:54.211Z,0.90
2019-01-08T22:50:23.133Z,0.60
2019-01-08T22:52:53.098Z,0.97
2019-01-08T22:55:22.527Z,0.70
2019-01-08T22:57:51.610Z,0.90
2019-01-08T23:00:37.721Z,0.40
2019-01-08T23:03:06.633Z,0.50
2019-01-08T23:05:35.438Z,0.90
2019-01-08T23:08:04.370Z,0.67
2019-01-08T23:10:33.740Z,0.93
2019-01-08T23:13:03.130Z,0.73
2019-01-08T23:15:31.876Z,0.90
2019-01-08T23:18:00.630Z,0.80
2019-01-08T23:20:29.347Z,0.60
2019-01-08T23:22:58.062Z,0.50
2019-01-08T23:25:27.191Z,0.70
2019-01-08T23:27:56.258Z,0.93
2019-01-08T23:30:25.429Z,0.60
2019-01-08T23:32:54.948Z,0.50
2019-01-08T23:35:23.766Z,0.77
2019-01-08T23:37:52.557Z,0.80
2019-01-08T23:40:21.435Z,0.80
2019-01-08T23:42:50.303Z,0.50
2019-01-08T23:45:19.107Z,0.67
2019-01-08T23:47:47.923Z,0.40
2019-01-08T23:50:17.007Z,0.67
2019-01-08T23:53:04.492Z,0.60
2019-01-08T23:55:34.990Z,0.40
2019-01-08T23:58:03.784Z,0.50
